Time;durP1;ratioP1;P1;durP2;ratioP2;P2;SDS_P1;SDS_P2;PMS_P1;PMS_P2;Temp;Humidity;BMP_temperature;BMP_pressure;BME280_temperature;BME280_humidity;BME280_pressure;Samples;Min_cycle;Max_cycle;Signal;HPM_P1;HPM_P2
2021/08/08 00:00:56;;;;;;;2.50;1.23;;;17.80;72.10;;;;;;4974284;28;20420;-77
2021/08/08 00:03:22;;;;;;;3.57;1.40;;;17.80;72.20;;;;;;4975451;28;20513;-76
2021/08/08 00:05:48;;;;;;;2.07;0.97;;;17.90;72.30;;;;;;4977643;28;20668;-77
2021/08/08 00:08:14;;;;;;;2.00;1.33;;;17.80;71.90;;;;;;4979050;28;20168;-76
2021/08/08 00:10:41;;;;;;;3.17;1.00;;;17.80;72.00;;;;;;4978281;28;20165;-76
2021/08/08 00:13:07;;;;;;;4.43;1.30;;;17.80;71.80;;;;;;4979947;28;20670;-77
2021/08/08 00:15:34;;;;;;;4.70;0.90;;;17.80;71.60;;;;;;4979013;28;20518;-77
2021/08/08 00:18:03;;;;;;;1.93;1.00;;;17.80;71.70;;;;;;4975651;28;20424;-77
2021/08/08 00:20:30;;;;;;;1.60;1.00;;;17.80;71.50;;;;;;4977045;28;20474;-77
2021/08/08 00:22:56;;;;;;;3.07;1.20;;;17.80;71.70;;;;;;4977389;28;20452;-77
2021/08/08 00:25:23;;;;;;;4.33;1.30;;;17.80;71.80;;;;;;4979372;28;20930;-76
2021/08/08 00:27:48;;;;;;;1.20;0.87;;;17.80;71.80;;;;;;4975799;28;20420;-77
2021/08/08 00:30:14;;;;;;;2.80;1.10;;;17.80;71.90;;;;;;4974404;28;20173;-77
2021/08/08 00:32:40;;;;;;;2.27;1.10;;;17.80;71.80;;;;;;4975293;28;20585;-77
2021/08/08 00:35:11;;;;;;;3.37;1.10;;;17.90;71.80;;;;;;4973947;28;20530;-76
2021/08/08 00:37:37;;;;;;;2.83;1.20;;;17.80;71.30;;;;;;4974962;28;20782;-77
2021/08/08 00:40:05;;;;;;;3.50;1.27;;;17.80;71.20;;;;;;4975179;28;20413;-76
2021/08/08 00:42:32;;;;;;;2.67;1.20;;;17.80;71.40;;;;;;4974899;28;20464;-78
2021/08/08 00:44:59;;;;;;;2.37;1.23;;;17.80;71.30;;;;;;4975682;28;20463;-77
2021/08/08 00:47:25;;;;;;;5.13;1.17;;;17.80;71.30;;;;;;4976701;28;20762;-77
2021/08/08 00:49:50;;;;;;;2.90;1.33;;;17.80;71.30;;;;;;4973945;28;20676;-77
2021/08/08 00:52:16;;;;;;;2.47;1.50;;;17.90;71.00;;;;;;4973362;28;20419;-77
2021/08/08 00:54:44;;;;;;;1.23;0.93;;;17.90;70.90;;;;;;4973597;28;20676;-77
2021/08/08 00:57:11;;;;;;;2.13;1.30;;;17.90;70.90;;;;;;4973833;28;20421;-77
2021/08/08 00:59:37;;;;;;;2.57;1.70;;;17.90;70.80;;;;;;4974218;28;20408;-77
2021/08/08 01:02:05;;;;;;;4.23;1.40;;;17.90;70.90;;;;;;4957837;28;20424;-76
2021/08/08 01:04:40;;;;;;;2.10;1.20;;;17.90;70.70;;;;;;4973653;28;20496;-77
2021/08/08 01:07:20;;;;;;;3.70;1.50;;;17.90;70.70;;;;;;4973748;28;20499;-77
2021/08/08 01:09:52;;;;;;;2.80;1.37;;;17.90;70.60;;;;;;4973453;28;20417;-77
2021/08/08 01:12:21;;;;;;;5.97;1.40;;;17.90;70.50;;;;;;4976687;28;20579;-77
2021/08/08 01:14:51;;;;;;;1.50;1.20;;;18.00;70.50;;;;;;4973678;28;20411;-77
2021/08/08 01:17:19;;;;;;;2.17;1.30;;;18.00;70.10;;;;;;4957330;28;20432;-77
2021/08/08 01:19:54;;;;;;;4.07;1.63;;;18.00;70.00;;;;;;4973346;28;20519;-77
2021/08/08 01:22:22;;;;;;;3.93;1.40;;;18.00;69.60;;;;;;4957067;28;20434;-77
2021/08/08 01:24:49;;;;;;;1.37;1.10;;;18.00;69.40;;;;;;4972901;28;20456;-77
2021/08/08 01:27:16;;;;;;;3.30;1.33;;;18.00;69.30;;;;;;4974779;28;20448;-77
2021/08/08 01:29:42;;;;;;;2.97;1.30;;;18.10;69.40;;;;;;4972891;28;21000;-77
2021/08/08 01:32:08;;;;;;;2.13;1.50;;;18.10;68.90;;;;;;4973338;28;20521;-77
2021/08/08 01:34:36;;;;;;;3.73;1.40;;;18.10;68.80;;;;;;4957849;28;20183;-77
2021/08/08 01:37:05;;;;;;;4.17;1.57;;;18.10;68.50;;;;;;4973426;28;20429;-77
2021/08/08 01:39:35;;;;;;;2.70;1.20;;;18.10;68.20;;;;;;4973332;28;20419;-76
2021/08/08 01:42:07;;;;;;;3.83;2.10;;;18.10;67.50;;;;;;4972741;28;20421;-77
2021/08/08 01:44:44;;;;;;;3.40;1.40;;;18.10;67.20;;;;;;4972963;28;20455;-77
2021/08/08 01:47:13;;;;;;;19.93;1.60;;;18.10;67.30;;;;;;4957074;28;20425;-77
2021/08/08 01:49:43;;;;;;;3.40;1.30;;;18.10;66.90;;;;;;4972670;28;20446;-77
2021/08/08 01:52:09;;;;;;;3.80;1.83;;;18.10;66.90;;;;;;4972133;28;20414;-77
2021/08/08 01:54:52;;;;;;;3.70;1.67;;;18.10;66.60;;;;;;4959590;28;20611;-78
2021/08/08 01:57:24;;;;;;;6.60;2.47;;;18.00;66.30;;;;;;4972814;28;20428;-77
2021/08/08 01:59:56;;;;;;;3.07;1.60;;;18.10;66.90;;;;;;4957194;28;20824;-76
2021/08/08 02:02:21;;;;;;;3.33;1.57;;;18.10;66.50;;;;;;4972822;28;20431;-76
2021/08/08 02:04:56;;;;;;;4.73;1.50;;;18.10;65.60;;;;;;4972366;28;20515;-77
2021/08/08 02:07:22;;;;;;;3.10;1.53;;;18.10;65.90;;;;;;4972172;28;20487;-77
2021/08/08 02:09:52;;;;;;;5.73;1.50;;;18.10;65.70;;;;;;4972450;28;20255;-77
2021/08/08 02:12:24;;;;;;;6.63;2.80;;;18.10;65.10;;;;;;4973441;28;20887;-80
2021/08/08 02:14:50;;;;;;;4.00;1.67;;;18.10;65.30;;;;;;4975006;28;20439;-77
2021/08/08 02:17:24;;;;;;;4.30;1.70;;;18.00;65.40;;;;;;4973276;28;20958;-77
2021/08/08 02:19:51;;;;;;;2.80;1.60;;;18.00;65.60;;;;;;4972703;28;20412;-76
2021/08/08 02:22:19;;;;;;;6.03;1.60;;;17.90;65.20;;;;;;4972009;28;20463;-76
2021/08/08 02:24:48;;;;;;;4.67;1.70;;;17.90;65.30;;;;;;4971992;28;20459;-76
2021/08/08 02:27:18;;;;;;;11.67;2.20;;;17.90;65.00;;;;;;4971724;28;20515;-77
2021/08/08 02:29:50;;;;;;;4.47;1.60;;;17.80;65.30;;;;;;4972892;28;20397;-76
2021/08/08 02:32:16;;;;;;;6.13;2.13;;;17.80;65.40;;;;;;4973041;28;20427;-76
2021/08/08 02:34:43;;;;;;;1.97;1.53;;;17.80;65.70;;;;;;4971417;28;20416;-77
2021/08/08 02:37:10;;;;;;;4.50;1.87;;;17.80;65.70;;;;;;4955954;28;20467;-76
2021/08/08 02:39:38;;;;;;;3.93;1.37;;;17.80;65.90;;;;;;4971662;28;20480;-77
2021/08/08 02:42:04;;;;;;;4.47;2.40;;;17.80;65.20;;;;;;4955789;28;20521;-77
2021/08/08 02:44:33;;;;;;;4.63;1.97;;;17.80;65.20;;;;;;4971642;28;20200;-76
2021/08/08 02:46:58;;;;;;;2.60;1.93;;;17.80;65.00;;;;;;4971989;28;20415;-77
2021/08/08 02:49:24;;;;;;;5.80;2.53;;;17.70;65.30;;;;;;4973620;28;20228;-77
2021/08/08 02:51:50;;;;;;;3.37;1.80;;;17.70;65.30;;;;;;4973201;28;20168;-77
2021/08/08 02:54:18;;;;;;;3.50;1.80;;;17.70;65.70;;;;;;4973370;28;20264;-77
2021/08/08 02:56:47;;;;;;;7.10;1.77;;;17.70;65.00;;;;;;4973794;28;20440;-77
2021/08/08 02:59:13;;;;;;;5.67;3.03;;;17.70;65.40;;;;;;4971285;28;20426;-77
2021/08/08 03:01:45;;;;;;;3.43;1.70;;;17.60;65.20;;;;;;4958800;28;20508;-77
2021/08/08 03:04:10;;;;;;;6.23;1.90;;;17.60;65.00;;;;;;4974687;28;20475;-77
2021/08/08 03:06:37;;;;;;;9.20;2.10;;;17.50;65.20;;;;;;4973192;28;20670;-77
2021/08/08 03:09:03;;;;;;;5.20;2.00;;;17.50;65.70;;;;;;4973134;28;20416;-77
2021/08/08 03:11:28;;;;;;;3.83;1.73;;;17.50;65.70;;;;;;4974292;28;20162;-77
2021/08/08 03:13:54;;;;;;;1.87;1.17;;;17.50;65.00;;;;;;4973243;28;20570;-76
2021/08/08 03:16:20;;;;;;;5.60;1.80;;;17.50;64.70;;;;;;4972823;28;20214;-76
2021/08/08 03:18:45;;;;;;;3.40;1.37;;;17.50;64.80;;;;;;4972837;28;20176;-76
2021/08/08 03:21:11;;;;;;;6.17;1.40;;;17.40;65.00;;;;;;4973091;28;20168;-77
2021/08/08 03:23:37;;;;;;;4.03;1.50;;;17.40;65.10;;;;;;4956501;28;20355;-76
2021/08/08 03:26:03;;;;;;;5.57;1.77;;;17.50;65.10;;;;;;4973138;28;20479;-76
2021/08/08 03:28:31;;;;;;;4.23;1.87;;;17.40;64.60;;;;;;4973600;28;20515;-76
2021/08/08 03:30:57;;;;;;;4.10;1.63;;;17.40;64.40;;;;;;4975094;28;20502;-76
2021/08/08 03:33:23;;;;;;;5.30;1.70;;;17.30;64.80;;;;;;4975480;28;20462;-76
2021/08/08 03:35:48;;;;;;;9.13;1.60;;;17.30;64.90;;;;;;4979326;28;20604;-77
2021/08/08 03:38:15;;;;;;;4.37;2.00;;;17.30;64.60;;;;;;4972742;28;20542;-76
2021/08/08 03:40:41;;;;;;;4.70;1.77;;;17.30;64.70;;;;;;4972321;28;20431;-76
2021/08/08 03:43:07;;;;;;;7.30;1.50;;;17.20;64.60;;;;;;4971859;28;20188;-76
2021/08/08 03:45:33;;;;;;;4.67;2.23;;;17.20;65.10;;;;;;4970105;28;20192;-76
2021/08/08 03:47:59;;;;;;;3.60;1.50;;;17.20;64.90;;;;;;4970652;28;20250;-76
2021/08/08 03:50:26;;;;;;;6.60;2.07;;;17.20;65.10;;;;;;4972256;28;20411;-76
2021/08/08 03:52:52;;;;;;;5.60;2.27;;;17.20;65.30;;;;;;4970442;28;20932;-77
2021/08/08 03:55:20;;;;;;;5.83;2.00;;;17.10;66.10;;;;;;4970248;28;20963;-76
2021/08/08 03:57:46;;;;;;;4.90;1.87;;;17.10;65.60;;;;;;4970211;28;20798;-76
2021/08/08 04:00:18;;;;;;;2.70;1.50;;;17.00;65.70;;;;;;4955705;28;20793;-76
2021/08/08 04:02:46;;;;;;;7.00;2.00;;;17.00;66.00;;;;;;4970543;28;20471;-77
2021/08/08 04:05:17;;;;;;;7.73;1.90;;;16.90;66.10;;;;;;4955644;28;20440;-76
2021/08/08 04:07:43;;;;;;;5.30;2.47;;;16.90;66.40;;;;;;4971050;28;20420;-77
2021/08/08 04:10:09;;;;;;;12.30;2.20;;;16.80;66.70;;;;;;4970799;28;20715;-77
2021/08/08 04:12:35;;;;;;;8.50;2.10;;;16.80;67.20;;;;;;4971401;28;20176;-77
2021/08/08 04:15:02;;;;;;;5.90;1.80;;;16.80;67.30;;;;;;4970668;28;21094;-76
2021/08/08 04:17:28;;;;;;;6.53;2.60;;;16.80;67.50;;;;;;4970820;28;20180;-77
2021/08/08 04:19:54;;;;;;;3.30;2.10;;;16.80;67.90;;;;;;4972020;28;20478;-77
2021/08/08 04:22:20;;;;;;;6.03;1.67;;;16.80;67.70;;;;;;4970723;28;20427;-76
2021/08/08 04:24:46;;;;;;;5.70;2.13;;;16.90;67.60;;;;;;4970546;28;20204;-77
2021/08/08 04:27:13;;;;;;;5.80;2.00;;;16.90;67.40;;;;;;4972802;28;20165;-77
2021/08/08 04:29:40;;;;;;;9.53;2.10;;;16.90;67.80;;;;;;4973083;28;20165;-77
2021/08/08 04:32:07;;;;;;;6.87;2.27;;;16.90;67.70;;;;;;4971882;28;20432;-77
2021/08/08 04:34:33;;;;;;;6.50;2.17;;;17.00;68.00;;;;;;4970839;28;20419;-77
2021/08/08 04:37:00;;;;;;;7.30;1.63;;;17.00;68.10;;;;;;4970659;28;20430;-77
2021/08/08 04:39:26;;;;;;;5.87;1.80;;;17.00;68.10;;;;;;4970058;28;20423;-77
2021/08/08 04:41:52;;;;;;;7.37;3.33;;;16.90;68.20;;;;;;4971941;28;20430;-77
2021/08/08 04:44:19;;;;;;;12.43;2.00;;;16.90;68.40;;;;;;4970616;28;20456;-77
2021/08/08 04:46:45;;;;;;;4.97;1.80;;;16.90;68.30;;;;;;4970584;28;20212;-77
2021/08/08 04:49:11;;;;;;;9.40;2.17;;;16.90;68.40;;;;;;4954646;28;20412;-77
2021/08/08 04:51:37;;;;;;;8.20;2.30;;;16.90;68.40;;;;;;4972636;28;20487;-77
2021/08/08 04:54:03;;;;;;;4.90;2.10;;;16.90;68.40;;;;;;4970371;28;20267;-77
2021/08/08 04:56:29;;;;;;;7.57;2.40;;;16.90;68.30;;;;;;4955835;28;20228;-77
2021/08/08 04:58:55;;;;;;;5.80;2.43;;;17.00;68.40;;;;;;4981037;28;20419;-75
2021/08/08 05:01:21;;;;;;;4.77;2.47;;;17.00;68.10;;;;;;4979179;28;20219;-77
2021/08/08 05:03:46;;;;;;;8.77;3.57;;;17.00;68.00;;;;;;4958129;28;20222;-77
2021/08/08 05:06:12;;;;;;;6.20;1.73;;;17.00;67.90;;;;;;4973588;28;20436;-76
2021/08/08 05:08:38;;;;;;;3.27;1.77;;;17.00;67.80;;;;;;4974425;28;20189;-77
2021/08/08 05:11:04;;;;;;;6.00;2.00;;;17.10;67.70;;;;;;4974821;28;20488;-77
2021/08/08 05:13:30;;;;;;;4.50;2.00;;;17.10;67.60;;;;;;4973769;28;20451;-77
2021/08/08 05:15:58;;;;;;;9.57;2.53;;;17.10;67.50;;;;;;4973679;28;20208;-77
2021/08/08 05:18:24;;;;;;;9.70;2.10;;;17.20;67.50;;;;;;4975163;28;20456;-77
2021/08/08 05:20:50;;;;;;;9.30;2.00;;;17.20;67.30;;;;;;4975057;28;20827;-76
2021/08/08 05:23:16;;;;;;;6.80;2.13;;;17.30;67.40;;;;;;4973788;28;20701;-76
2021/08/08 05:25:42;;;;;;;7.33;2.20;;;17.30;67.00;;;;;;4974844;28;20554;-76
2021/08/08 05:28:07;;;;;;;4.87;1.73;;;17.40;66.90;;;;;;4975359;28;20250;-77
2021/08/08 05:30:33;;;;;;;6.17;2.43;;;17.50;66.50;;;;;;4974080;28;20173;-77
2021/08/08 05:32:59;;;;;;;7.17;2.10;;;17.60;66.50;;;;;;4974024;28;20239;-76
2021/08/08 05:35:25;;;;;;;5.53;2.40;;;17.60;66.20;;;;;;4973013;28;20196;-77
2021/08/08 05:37:50;;;;;;;5.37;3.13;;;17.60;66.40;;;;;;4974347;28;20439;-77
2021/08/08 05:40:17;;;;;;;7.47;2.40;;;17.60;66.20;;;;;;4973904;28;20196;-77
2021/08/08 05:42:48;;;;;;;6.07;1.93;;;17.60;66.00;;;;;;4974682;28;20937;-78
2021/08/08 05:45:14;;;;;;;11.23;2.13;;;17.60;66.30;;;;;;4958107;28;20499;-77
2021/08/08 05:47:40;;;;;;;8.87;2.13;;;17.60;66.20;;;;;;4976327;28;21033;-76
2021/08/08 05:50:06;;;;;;;4.17;2.00;;;17.70;66.20;;;;;;4978786;28;20503;-78
2021/08/08 05:52:31;;;;;;;4.10;2.10;;;17.70;66.10;;;;;;4983084;28;20161;-77
2021/08/08 05:55:00;;;;;;;4.10;1.97;;;17.80;66.00;;;;;;4974527;28;20670;-78
2021/08/08 05:57:26;;;;;;;4.97;2.10;;;17.80;65.80;;;;;;4974855;28;20176;-77
2021/08/08 05:59:52;;;;;;;5.87;1.80;;;18.00;66.00;;;;;;4975083;28;20813;-78
2021/08/08 06:02:18;;;;;;;4.43;1.67;;;18.10;65.20;;;;;;4975616;28;20423;-77
2021/08/08 06:04:49;;;;;;;5.10;1.90;;;18.20;64.70;;;;;;4974438;28;20203;-77
2021/08/08 06:07:15;;;;;;;5.53;1.97;;;18.30;64.40;;;;;;4958665;28;20183;-77
2021/08/08 06:09:41;;;;;;;4.83;2.00;;;18.30;63.60;;;;;;4974182;28;20415;-76
2021/08/08 06:12:07;;;;;;;3.50;1.70;;;18.30;63.70;;;;;;4975660;28;20770;-77
2021/08/08 06:14:34;;;;;;;3.93;1.53;;;18.30;63.40;;;;;;4977945;28;20174;-76
2021/08/08 06:17:00;;;;;;;2.13;1.50;;;18.40;63.10;;;;;;4979281;28;20453;-78
2021/08/08 06:19:26;;;;;;;8.07;2.63;;;18.50;63.20;;;;;;4978762;28;20485;-77
2021/08/08 06:21:51;;;;;;;5.27;1.60;;;18.60;62.10;;;;;;4974649;28;20175;-77
2021/08/08 06:24:19;;;;;;;5.47;2.17;;;19.10;62.70;;;;;;4973636;28;20203;-78
2021/08/08 06:26:45;;;;;;;5.03;1.40;;;19.80;59.30;;;;;;4974669;28;20441;-76
2021/08/08 06:29:11;;;;;;;5.47;1.50;;;20.20;57.60;;;;;;4957651;28;21019;-76
2021/08/08 06:31:37;;;;;;;5.47;1.60;;;20.40;56.80;;;;;;4973029;28;20183;-77
2021/08/08 06:34:03;;;;;;;6.07;1.60;;;20.20;56.40;;;;;;4974861;28;20411;-77
2021/08/08 06:36:29;;;;;;;2.73;1.33;;;20.20;56.60;;;;;;4974716;28;20185;-76
2021/08/08 06:38:57;;;;;;;4.30;1.60;;;20.00;56.70;;;;;;4974791;28;20487;-79
2021/08/08 06:41:23;;;;;;;6.47;1.33;;;20.00;57.20;;;;;;4974904;28;20182;-78
2021/08/08 06:43:52;;;;;;;9.03;2.90;;;19.90;57.20;;;;;;4976401;28;20452;-77
2021/08/08 06:46:19;;;;;;;4.87;1.67;;;19.70;57.50;;;;;;4976533;28;20475;-77
2021/08/08 06:48:46;;;;;;;8.43;1.80;;;19.60;58.10;;;;;;4976766;28;20415;-77
2021/08/08 06:51:12;;;;;;;3.80;1.93;;;19.60;58.30;;;;;;4977589;28;20414;-77
2021/08/08 06:53:38;;;;;;;5.77;2.40;;;19.50;57.80;;;;;;4980157;28;20179;-77
2021/08/08 06:56:04;;;;;;;4.77;1.87;;;19.40;58.00;;;;;;4963555;28;20495;-78
2021/08/08 06:58:31;;;;;;;3.67;2.33;;;19.40;58.10;;;;;;4976928;28;20615;-77
2021/08/08 07:00:57;;;;;;;5.80;2.17;;;19.30;58.90;;;;;;4973915;28;20414;-78
2021/08/08 07:03:23;;;;;;;6.53;1.90;;;19.20;58.30;;;;;;4958229;28;20239;-78
2021/08/08 07:05:48;;;;;;;3.90;1.70;;;19.10;58.80;;;;;;4956895;28;20302;-77
2021/08/08 07:08:14;;;;;;;3.00;1.37;;;19.00;59.00;;;;;;4974782;28;20173;-79
2021/08/08 07:10:41;;;;;;;5.80;1.90;;;18.90;59.30;;;;;;4974158;28;20199;-78
2021/08/08 07:13:07;;;;;;;3.73;1.73;;;18.90;59.50;;;;;;4973500;28;20480;-78
2021/08/08 07:15:32;;;;;;;5.27;1.60;;;18.80;59.10;;;;;;4974710;28;20288;-77
2021/08/08 07:18:00;;;;;;;3.43;1.93;;;18.80;58.80;;;;;;4975102;28;20524;-79
2021/08/08 07:20:25;;;;;;;6.10;2.20;;;18.80;59.10;;;;;;4960535;28;20410;-79
2021/08/08 07:22:52;;;;;;;7.63;1.93;;;18.90;58.90;;;;;;4976933;28;20232;-76
2021/08/08 07:25:18;;;;;;;5.50;2.40;;;19.00;58.70;;;;;;4977729;28;20713;-79
2021/08/08 07:27:44;;;;;;;5.27;1.70;;;19.00;58.50;;;;;;4957327;28;20180;-77
2021/08/08 07:30:10;;;;;;;8.30;2.00;;;19.00;58.50;;;;;;4974028;28;20505;-79
2021/08/08 07:32:37;;;;;;;6.20;1.90;;;19.00;58.40;;;;;;4974366;28;20441;-77
2021/08/08 07:35:04;;;;;;;3.57;1.87;;;19.10;57.80;;;;;;4976099;28;20441;-76
2021/08/08 07:37:30;;;;;;;6.73;2.47;;;19.10;58.50;;;;;;4973699;28;20530;-77
2021/08/08 07:39:55;;;;;;;4.37;1.80;;;19.30;58.40;;;;;;4974917;28;20770;-78
2021/08/08 07:42:21;;;;;;;8.83;2.03;;;19.80;58.00;;;;;;4977118;28;20412;-76
2021/08/08 07:44:48;;;;;;;4.50;1.90;;;20.40;56.40;;;;;;4973463;28;20259;-77
2021/08/08 07:47:16;;;;;;;7.10;2.20;;;20.80;55.30;;;;;;4971986;28;20168;-77
2021/08/08 07:49:43;;;;;;;2.60;1.80;;;21.30;53.40;;;;;;4972712;28;20490;-77
2021/08/08 07:52:09;;;;;;;4.50;1.63;;;21.50;53.80;;;;;;4973256;28;20427;-77
2021/08/08 07:54:34;;;;;;;3.63;1.70;;;22.40;52.40;;;;;;4973217;28;20416;-77
2021/08/08 07:57:00;;;;;;;2.03;1.83;;;23.10;50.70;;;;;;4957647;28;20494;-77
2021/08/08 07:59:26;;;;;;;5.83;2.00;;;24.10;48.80;;;;;;4973186;28;20177;-77
2021/08/08 08:01:52;;;;;;;4.20;2.27;;;25.40;47.10;;;;;;4973308;28;20307;-78
2021/08/08 08:04:20;;;;;;;3.73;1.73;;;27.00;44.00;;;;;;4957225;28;20519;-78
2021/08/08 08:06:46;;;;;;;5.53;1.97;;;28.60;41.40;;;;;;4973260;28;20180;-77
2021/08/08 08:09:13;;;;;;;4.20;1.63;;;29.30;38.30;;;;;;4956672;28;20412;-78
2021/08/08 08:11:40;;;;;;;5.93;1.60;;;28.60;37.90;;;;;;4972547;28;20408;-78
2021/08/08 08:14:07;;;;;;;4.67;1.63;;;27.70;39.10;;;;;;4958957;28;20255;-78
2021/08/08 08:16:32;;;;;;;3.67;1.67;;;27.90;39.90;;;;;;4976795;28;20449;-78
2021/08/08 08:18:58;;;;;;;3.40;1.50;;;29.10;37.80;;;;;;4974365;28;20844;-78
2021/08/08 08:21:24;;;;;;;3.20;1.63;;;29.90;36.70;;;;;;4974768;28;20191;-78
2021/08/08 08:23:49;;;;;;;5.47;1.70;;;30.80;34.20;;;;;;4973597;28;20215;-78
2021/08/08 08:26:15;;;;;;;4.17;2.00;;;31.70;32.40;;;;;;4973524;28;20188;-76
2021/08/08 08:28:40;;;;;;;5.60;1.70;;;31.70;32.80;;;;;;4974330;28;20168;-79
2021/08/08 08:31:08;;;;;;;2.37;1.50;;;31.80;32.20;;;;;;4974748;28;20672;-77
2021/08/08 08:33:34;;;;;;;5.00;2.00;;;31.90;31.70;;;;;;4975919;28;20175;-79
2021/08/08 08:35:59;;;;;;;3.30;1.73;;;32.20;31.00;;;;;;4976592;28;20427;-77
2021/08/08 08:38:25;;;;;;;3.63;1.67;;;31.90;31.10;;;;;;4977339;28;20171;-77
2021/08/08 08:40:51;;;;;;;3.20;1.90;;;32.20;29.60;;;;;;4976177;28;20187;-76
2021/08/08 08:43:22;;;;;;;3.60;2.00;;;32.20;30.20;;;;;;4977604;28;20206;-78
2021/08/08 08:45:48;;;;;;;4.17;1.70;;;33.00;29.40;;;;;;4977552;28;20518;-77
2021/08/08 08:48:18;;;;;;;3.20;1.60;;;33.60;28.30;;;;;;4961238;28;20411;-77
2021/08/08 08:50:52;;;;;;;4.27;2.40;;;33.50;27.90;;;;;;4976529;28;20423;-79
2021/08/08 08:53:17;;;;;;;5.90;2.50;;;33.00;28.60;;;;;;4975885;28;20423;-77
2021/08/08 08:55:43;;;;;;;3.43;1.70;;;31.60;29.50;;;;;;4976560;28;21003;-77
2021/08/08 08:58:10;;;;;;;3.30;1.50;;;30.30;30.20;;;;;;4975875;28;20200;-77
2021/08/08 09:00:40;;;;;;;5.73;1.90;;;28.70;31.80;;;;;;4960285;28;20177;-79
2021/08/08 09:03:05;;;;;;;5.93;1.90;;;27.80;33.90;;;;;;4977163;28;21209;-77
2021/08/08 09:05:31;;;;;;;3.77;1.90;;;27.30;34.30;;;;;;4958470;28;20837;-77
2021/08/08 09:07:58;;;;;;;4.30;1.70;;;26.90;35.80;;;;;;4975542;28;20431;-77
2021/08/08 09:10:24;;;;;;;3.60;1.40;;;26.50;36.60;;;;;;4975473;28;20981;-76
2021/08/08 09:12:58;;;;;;;5.33;2.00;;;26.20;36.90;;;;;;4975429;28;20180;-77
2021/08/08 09:15:38;;;;;;;4.90;2.13;;;25.60;38.10;;;;;;4975952;28;20540;-78
2021/08/08 09:18:21;;;;;;;4.50;1.90;;;24.80;39.30;;;;;;4975564;28;20410;-77
2021/08/08 09:21:08;;;;;;;7.77;1.87;;;24.40;40.20;;;;;;4975911;28;20774;-78
2021/08/08 09:23:34;;;;;;;2.37;1.60;;;23.80;41.10;;;;;;4977329;28;20455;-78
2021/08/08 09:26:01;;;;;;;3.40;1.60;;;23.40;41.30;;;;;;4959870;28;20522;-78
2021/08/08 09:28:30;;;;;;;5.53;2.13;;;23.10;42.00;;;;;;4978040;28;20427;-76
2021/08/08 09:30:58;;;;;;;3.97;1.60;;;22.90;42.80;;;;;;4977995;28;20412;-77
2021/08/08 09:33:24;;;;;;;6.40;1.80;;;22.90;43.10;;;;;;4979411;28;20423;-77
2021/08/08 09:35:52;;;;;;;2.73;1.70;;;22.90;43.30;;;;;;4975960;28;20454;-77
2021/08/08 09:38:18;;;;;;;4.17;1.87;;;23.00;43.50;;;;;;4976682;28;20693;-77
2021/08/08 09:40:56;;;;;;;2.77;1.97;;;23.20;43.20;;;;;;4975960;28;20478;-77
2021/08/08 09:43:28;;;;;;;3.40;1.97;;;23.40;43.20;;;;;;4975869;28;20765;-78
2021/08/08 09:45:53;;;;;;;5.27;2.07;;;23.50;43.20;;;;;;4978422;28;20964;-77
2021/08/08 09:48:19;;;;;;;3.33;1.60;;;24.30;42.60;;;;;;4975943;28;20491;-77
2021/08/08 09:50:45;;;;;;;4.13;1.63;;;25.40;39.70;;;;;;4979361;28;20183;-77
2021/08/08 09:53:20;;;;;;;3.33;1.50;;;26.00;39.10;;;;;;4980344;28;20177;-76
2021/08/08 09:55:46;;;;;;;2.90;1.87;;;26.40;38.70;;;;;;4982956;28;20423;-76
2021/08/08 09:58:21;;;;;;;3.30;1.30;;;27.40;37.10;;;;;;4964430;28;20503;-76
2021/08/08 10:00:48;;;;;;;3.00;1.40;;;27.90;35.60;;;;;;4977659;28;20421;-78
2021/08/08 10:03:15;;;;;;;4.27;1.90;;;27.60;35.40;;;;;;4977793;28;20519;-77
2021/08/08 10:05:42;;;;;;;4.60;2.20;;;26.70;36.60;;;;;;4977787;28;20439;-77
2021/08/08 10:08:16;;;;;;;4.70;2.30;;;25.60;38.40;;;;;;4977169;28;20419;-76
2021/08/08 10:10:44;;;;;;;3.27;1.63;;;25.10;39.40;;;;;;4977493;28;20470;-76
2021/08/08 10:13:29;;;;;;;3.10;1.63;;;24.80;40.40;;;;;;4978108;28;20407;-77
2021/08/08 10:15:56;;;;;;;3.50;1.67;;;25.30;40.00;;;;;;4982698;28;20466;-77
2021/08/08 10:18:28;;;;;;;8.00;1.83;;;25.60;39.40;;;;;;4977971;28;20455;-78
2021/08/08 10:20:54;;;;;;;2.60;1.63;;;25.90;39.30;;;;;;4975685;28;20478;-77
2021/08/08 10:23:21;;;;;;;3.70;1.57;;;26.60;37.60;;;;;;4974079;28;20463;-76
2021/08/08 10:25:50;;;;;;;4.57;2.27;;;26.10;37.40;;;;;;4976633;28;20428;-77
2021/08/08 10:28:16;;;;;;;6.07;1.50;;;25.30;39.30;;;;;;4976187;28;20424;-77
2021/08/08 10:30:44;;;;;;;3.30;1.60;;;24.50;40.40;;;;;;4976996;28;20463;-77
2021/08/08 10:33:10;;;;;;;5.73;2.10;;;24.40;41.50;;;;;;4973585;28;20423;-77
2021/08/08 10:35:39;;;;;;;8.20;2.13;;;25.50;40.00;;;;;;4974919;28;20427;-75
2021/08/08 10:38:05;;;;;;;9.13;1.80;;;26.00;39.30;;;;;;4974782;28;20424;-77
2021/08/08 10:40:32;;;;;;;4.80;1.60;;;26.30;38.60;;;;;;4977149;28;20404;-77
2021/08/08 10:43:00;;;;;;;2.70;1.53;;;26.30;38.20;;;;;;4974880;28;20451;-77
2021/08/08 10:45:28;;;;;;;4.83;1.60;;;26.20;39.00;;;;;;4976333;28;20833;-77
2021/08/08 10:48:01;;;;;;;4.70;1.50;;;25.70;38.30;;;;;;4974018;28;20420;-76
2021/08/08 10:50:34;;;;;;;7.30;2.47;;;25.20;39.70;;;;;;4976557;28;20830;-75
2021/08/08 10:53:00;;;;;;;5.07;1.50;;;24.80;40.10;;;;;;4976876;28;20419;-77
2021/08/08 10:55:30;;;;;;;2.20;1.33;;;24.40;40.70;;;;;;4976139;28;20423;-77
2021/08/08 10:57:57;;;;;;;2.50;1.30;;;24.00;41.40;;;;;;4977877;28;20199;-77
2021/08/08 11:00:34;;;;;;;2.40;1.20;;;23.50;42.00;;;;;;4978428;28;20408;-77
2021/08/08 11:03:10;;;;;;;3.57;1.80;;;23.10;43.10;;;;;;4974733;28;20420;-78
2021/08/08 11:05:36;;;;;;;3.97;1.60;;;22.80;43.60;;;;;;4977044;28;20443;-78
2021/08/08 11:08:02;;;;;;;5.27;2.47;;;22.60;44.10;;;;;;4976244;28;20412;-77
2021/08/08 11:10:28;;;;;;;6.97;1.60;;;22.50;44.60;;;;;;4975078;28;20168;-77
2021/08/08 11:12:55;;;;;;;4.53;1.80;;;22.40;45.10;;;;;;4975478;28;20419;-77
2021/08/08 11:15:35;;;;;;;2.90;1.43;;;22.50;45.50;;;;;;4975916;28;20960;-77
2021/08/08 11:18:02;;;;;;;4.50;2.40;;;22.60;45.00;;;;;;4975552;28;20447;-77
2021/08/08 11:20:31;;;;;;;2.70;1.80;;;22.70;44.80;;;;;;4976862;28;20931;-77
2021/08/08 11:22:58;;;;;;;4.70;1.50;;;22.90;45.40;;;;;;4975251;28;20416;-77
2021/08/08 11:25:26;;;;;;;3.80;1.90;;;23.20;44.40;;;;;;4975264;28;20471;-77
2021/08/08 11:27:54;;;;;;;4.97;1.40;;;23.40;43.90;;;;;;4974429;28;20933;-77
2021/08/08 11:30:21;;;;;;;4.13;1.33;;;23.60;44.20;;;;;;4976032;28;20727;-77
2021/08/08 11:32:49;;;;;;;6.10;2.00;;;23.70;43.50;;;;;;4972597;28;20942;-77
2021/08/08 11:35:28;;;;;;;2.90;1.43;;;23.60;43.40;;;;;;4972915;28;20464;-77
2021/08/08 11:37:54;;;;;;;2.70;1.70;;;23.50;43.30;;;;;;4973485;28;21021;-76
2021/08/08 11:40:31;;;;;;;4.27;1.80;;;23.30;43.50;;;;;;4974692;28;20436;-76
2021/08/08 11:43:03;;;;;;;4.10;1.47;;;23.10;44.10;;;;;;4957213;28;20634;-77
2021/08/08 11:45:36;;;;;;;3.90;1.50;;;22.90;44.80;;;;;;4974205;28;20507;-76
2021/08/08 11:48:05;;;;;;;4.03;1.80;;;23.00;44.80;;;;;;4975353;28;20418;-77
2021/08/08 11:50:31;;;;;;;3.67;2.00;;;23.00;44.60;;;;;;4974624;28;20535;-77
2021/08/08 11:53:02;;;;;;;4.10;1.37;;;22.90;45.00;;;;;;4972235;28;20432;-77
2021/08/08 11:55:31;;;;;;;3.73;1.60;;;22.80;45.30;;;;;;4972338;28;20223;-77
2021/08/08 11:58:09;;;;;;;4.13;1.90;;;22.90;45.40;;;;;;4973796;28;20444;-78
2021/08/08 12:00:37;;;;;;;4.57;1.63;;;23.10;45.30;;;;;;4974538;28;20420;-76
2021/08/08 12:03:04;;;;;;;3.57;1.23;;;23.30;44.70;;;;;;4974609;28;20781;-77
2021/08/08 12:05:32;;;;;;;3.70;1.50;;;23.50;44.10;;;;;;4976092;28;20829;-78
2021/08/08 12:07:58;;;;;;;2.37;1.40;;;23.50;43.90;;;;;;4979334;28;20481;-77
2021/08/08 12:10:29;;;;;;;3.33;1.70;;;23.40;44.20;;;;;;4980845;28;20443;-77
2021/08/08 12:12:55;;;;;;;3.70;1.40;;;23.40;44.80;;;;;;4979572;28;20420;-77
2021/08/08 12:15:32;;;;;;;3.50;1.67;;;23.50;43.30;;;;;;4979428;28;20439;-78
2021/08/08 12:17:59;;;;;;;5.90;1.27;;;23.50;43.30;;;;;;4980860;28;20427;-77
2021/08/08 12:20:37;;;;;;;3.07;1.40;;;23.40;43.30;;;;;;4982217;28;20816;-78
2021/08/08 12:23:09;;;;;;;3.97;1.63;;;23.50;43.40;;;;;;4979500;28;20964;-76
2021/08/08 12:25:36;;;;;;;3.53;1.37;;;23.50;43.80;;;;;;4981088;28;20433;-78
2021/08/08 12:28:02;;;;;;;3.50;1.40;;;23.70;43.80;;;;;;4982506;28;20407;-77
2021/08/08 12:30:28;;;;;;;5.97;3.27;;;23.70;43.50;;;;;;4982796;28;20414;-77
2021/08/08 12:33:08;;;;;;;3.40;1.50;;;23.50;43.20;;;;;;4983237;28;20260;-77
2021/08/08 12:35:40;;;;;;;2.10;1.40;;;23.30;43.50;;;;;;4980842;28;20450;-77
2021/08/08 12:38:11;;;;;;;2.33;1.20;;;23.20;44.30;;;;;;4981058;28;20496;-78
2021/08/08 12:40:42;;;;;;;3.17;1.70;;;23.10;43.60;;;;;;4978786;28;20415;-77
2021/08/08 12:43:08;;;;;;;3.37;1.80;;;22.80;45.10;;;;;;4979747;28;20905;-78
2021/08/08 12:45:35;;;;;;;2.70;1.37;;;22.70;46.40;;;;;;4981424;28;20435;-77
2021/08/08 12:48:01;;;;;;;3.43;1.47;;;22.70;46.70;;;;;;4981769;28;20510;-78